Time;durP1;ratioP1;P1;durP2;ratioP2;P2;SDS_P1;SDS_P2;PMS_P1;PMS_P2;Temp;Humidity;BMP_temperature;BMP_pressure;BME280_temperature;BME280_humidity;BME280_pressure;Samples;Min_cycle;Max_cycle;Signal;HPM_P1;HPM_P2
2023/09/28 00:01:47;;;;;;;17.08;13.13;;;17.20;99.90;;;;;;10434770;28;20193;-75
2023/09/28 00:07:09;;;;;;;16.23;12.77;;;17.20;1.00;;;;;;10476636;28;20273;-76
2023/09/28 00:12:30;;;;;;;16.42;14.07;;;;;;;;;;10455522;28;20422;-76
2023/09/28 00:17:52;;;;;;;20.35;13.90;;;;;;;;;;10435363;28;20378;-77
2023/09/28 00:23:13;;;;;;;21.98;13.90;;;17.10;99.90;;;;;;10410962;28;20279;-77
2023/09/28 00:28:34;;;;;;;14.73;12.88;;;16.90;32.20;;;;;;10410987;28;20256;-75
2023/09/28 00:33:56;;;;;;;18.40;13.82;;;16.70;1.00;;;;;;10440866;28;20199;-76
2023/09/28 00:39:17;;;;;;;25.73;20.25;;;16.80;99.90;;;;;;10442984;28;20192;-76
2023/09/28 00:44:38;;;;;;;26.38;18.95;;;17.00;1.00;;;;;;10454707;28;20236;-76
2023/09/28 00:50:03;;;;;;;26.23;17.13;;;16.70;1.00;;;;;;10428630;28;20510;-78
2023/09/28 00:55:27;;;;;;;31.38;20.60;;;16.70;1.00;;;;;;10427216;28;20241;-78
2023/09/28 01:00:48;;;;;;;23.45;17.92;;;16.60;1.00;;;;;;10428642;28;20354;-77
2023/09/28 01:06:10;;;;;;;29.75;19.65;;;16.50;1.00;;;;;;10467012;28;20228;-75
2023/09/28 01:11:31;;;;;;;25.05;18.50;;;16.50;1.00;;;;;;10426379;28;20262;-78
2023/09/28 01:16:52;;;;;;;23.92;17.85;;;16.50;99.90;;;;;;10450888;28;20238;-78
2023/09/28 01:22:14;;;;;;;23.25;15.25;;;16.40;99.90;;;;;;10439285;28;20209;-78
2023/09/28 01:27:36;;;;;;;19.35;15.93;;;16.30;1.00;;;;;;10408986;28;20233;-78
2023/09/28 01:32:57;;;;;;;21.27;14.00;;;16.30;1.00;;;;;;10449719;28;20375;-78
2023/09/28 01:38:32;;;;;;;21.73;15.73;;;16.20;99.90;;;;;;10463590;28;20204;-77
2023/09/28 01:43:56;;;;;;;21.15;16.42;;;16.10;1.00;;;;;;10481475;28;20199;-78
2023/09/28 01:49:17;;;;;;;21.58;16.60;;;16.10;1.00;;;;;;10397597;28;20474;-79
2023/09/28 01:54:41;;;;;;;19.42;15.38;;;16.10;1.00;;;;;;10398564;28;20192;-78
2023/09/28 02:00:20;;;;;;;21.13;15.02;;;16.00;39.30;;;;;;10414759;28;20204;-79
2023/09/28 02:05:41;;;;;;;24.83;16.92;;;15.90;1.00;;;;;;10418441;28;20310;-77
2023/09/28 02:11:03;;;;;;;19.52;15.38;;;15.80;1.00;;;;;;10438812;28;20227;-78
2023/09/28 02:16:25;;;;;;;18.83;15.80;;;15.80;99.90;;;;;;10423268;28;20208;-79
2023/09/28 02:21:47;;;;;;;23.65;17.13;;;15.70;99.90;;;;;;10423934;28;20196;-77
2023/09/28 02:27:08;;;;;;;22.55;16.63;;;15.70;1.00;;;;;;10438727;28;20206;-78
2023/09/28 02:32:29;;;;;;;24.25;17.00;;;15.70;1.00;;;;;;10437677;28;20222;-78
2023/09/28 02:37:51;;;;;;;20.42;16.05;;;15.70;1.00;;;;;;10419769;28;20195;-77
2023/09/28 02:43:12;;;;;;;23.00;16.75;;;;;;;;;;10436765;28;20464;-78
2023/09/28 02:48:34;;;;;;;21.00;15.80;;;15.70;1.00;;;;;;10436949;28;20281;-78
2023/09/28 02:53:55;;;;;;;20.58;15.05;;;15.70;99.90;;;;;;10436642;28;20215;-78
2023/09/28 02:59:17;;;;;;;20.50;16.10;;;15.60;99.90;;;;;;10436795;28;20195;-78
2023/09/28 03:04:39;;;;;;;23.50;15.38;;;15.60;99.90;;;;;;10418845;28;20552;-79
2023/09/28 03:10:03;;;;;;;20.25;13.90;;;15.60;1.00;;;;;;10419008;28;20231;-78
2023/09/28 03:15:26;;;;;;;17.70;14.07;;;15.60;1.60;;;;;;10435687;28;20227;-78
2023/09/28 03:20:48;;;;;;;17.35;13.82;;;15.50;99.90;;;;;;10435591;28;20275;-78
2023/09/28 03:26:10;;;;;;;19.70;14.80;;;15.40;60.10;;;;;;10436661;28;20477;-77
2023/09/28 03:31:32;;;;;;;17.45;13.30;;;15.40;1.00;;;;;;10435656;28;20222;-78
2023/09/28 03:36:55;;;;;;;15.73;14.02;;;15.30;99.90;;;;;;10404651;28;20218;-79
2023/09/28 03:42:16;;;;;;;16.10;12.73;;;15.30;95.80;;;;;;10417920;28;20400;-78
2023/09/28 03:47:42;;;;;;;23.77;15.95;;;15.30;1.00;;;;;;10438528;28;20326;-78
2023/09/28 03:53:04;;;;;;;21.83;15.98;;;15.30;1.00;;;;;;10412821;28;20202;-78
2023/09/28 03:58:25;;;;;;;35.40;21.25;;;15.40;99.90;;;;;;10425482;28;20558;-78
2023/09/28 04:03:46;;;;;;;29.10;19.13;;;15.40;1.00;;;;;;10402903;28;20239;-79
2023/09/28 04:15:50;;;;;;;26.30;18.65;;;15.40;57.60;;;;;;10441304;28;20385;-78
2023/09/28 04:21:11;;;;;;;28.13;19.33;;;15.40;99.90;;;;;;10438691;28;20246;-78
2023/09/28 04:26:33;;;;;;;24.17;18.45;;;15.30;1.00;;;;;;10441601;28;20269;-77
2023/09/28 04:31:54;;;;;;;24.05;17.67;;;15.40;99.90;;;;;;10442246;28;20235;-79
2023/09/28 04:37:19;;;;;;;21.20;14.68;;;;;;;;;;10424956;28;20433;-77
2023/09/28 04:42:40;;;;;;;21.77;14.90;;;15.30;99.90;;;;;;10442650;28;20222;-77
2023/09/28 04:48:02;;;;;;;18.75;14.73;;;15.40;1.00;;;;;;10441570;28;20266;-78
2023/09/28 04:53:23;;;;;;;18.70;14.52;;;15.30;1.00;;;;;;10442329;28;20242;-78
2023/09/28 04:58:45;;;;;;;18.83;14.88;;;15.30;99.90;;;;;;10440181;28;20195;-79
2023/09/28 05:04:56;;;;;;;17.15;15.00;;;15.30;1.00;;;;;;10400812;28;20192;-78
2023/09/28 05:10:17;;;;;;;20.30;15.15;;;15.40;1.00;;;;;;10400585;28;20227;-77
2023/09/28 05:15:39;;;;;;;19.95;16.05;;;15.40;26.40;;;;;;10418120;28;20271;-77
2023/09/28 05:21:00;;;;;;;20.40;15.90;;;15.40;37.10;;;;;;10423583;28;20203;-78
2023/09/28 06:03:57;;;;;;;23.27;17.45;;;15.90;1.00;;;;;;10414635;28;20240;-75
2023/09/28 06:09:19;;;;;;;25.70;17.10;;;15.90;1.00;;;;;;10420407;28;20259;-75
2023/09/28 06:20:00;;;;;;;27.58;18.02;;;16.10;99.90;;;;;;10423733;28;20505;-77
2023/09/28 06:30:41;;;;;;;20.92;17.48;;;16.40;99.90;;;;;;10449937;28;20248;-76
2023/09/28 06:36:04;;;;;;;25.85;18.60;;;16.70;99.90;;;;;;10437295;28;20197;-76
2023/09/28 06:41:26;;;;;;;20.88;15.52;;;17.00;99.90;;;;;;10437833;28;20208;-76
2023/09/28 06:46:48;;;;;;;23.67;14.32;;;17.80;1.00;;;;;;10436423;28;20197;-75
2023/09/28 06:52:10;;;;;;;17.85;12.77;;;19.50;1.00;;;;;;10436301;28;20777;-77
2023/09/28 06:57:31;;;;;;;21.95;11.75;;;21.00;1.00;;;;;;10410882;28;20234;-76
2023/09/28 07:02:55;;;;;;;20.05;12.30;;;;;;;;;;10443152;28;20479;-79
2023/09/28 07:08:17;;;;;;;18.35;11.73;;;23.30;1.00;;;;;;10441397;28;20240;-81
2023/09/28 07:13:38;;;;;;;18.30;11.13;;;23.60;1.00;;;;;;10445069;28;20202;-77
2023/09/28 07:19:03;;;;;;;19.58;10.13;;;24.30;99.90;;;;;;10443269;28;20201;-77
2023/09/28 07:24:26;;;;;;;18.27;11.48;;;24.80;99.90;;;;;;10419657;28;20244;-77
2023/09/28 07:29:48;;;;;;;19.20;12.55;;;25.20;99.90;;;;;;10399492;28;20220;-77
2023/09/28 07:35:11;;;;;;;16.63;12.57;;;25.10;99.90;;;;;;10448379;28;20212;-76
2023/09/28 07:40:32;;;;;;;20.40;11.88;;;25.60;99.90;;;;;;10450392;28;20734;-78
2023/09/28 07:46:06;;;;;;;18.63;10.77;;;;;;;;;;10444546;28;20266;-77
2023/09/28 07:51:27;;;;;;;14.55;10.27;;;26.80;99.90;;;;;;10471561;28;20518;-78
2023/09/28 07:56:48;;;;;;;15.18;8.30;;;26.90;99.90;;;;;;10438616;28;20499;-80
2023/09/28 08:02:09;;;;;;;11.68;8.63;;;27.20;99.90;;;;;;10408387;28;20200;-79
2023/09/28 08:07:33;;;;;;;15.63;9.20;;;27.70;99.90;;;;;;10401989;28;20303;-77
2023/09/28 08:12:55;;;;;;;10.13;8.73;;;28.20;99.90;;;;;;10425010;28;20400;-77
2023/09/28 08:18:16;;;;;;;12.85;8.73;;;28.70;99.90;;;;;;10429836;28;20291;-77
2023/09/28 08:23:37;;;;;;;11.35;8.43;;;28.90;99.90;;;;;;10427071;28;20208;-76
2023/09/28 08:29:04;;;;;;;13.05;9.27;;;29.00;99.90;;;;;;10429158;28;20228;-77
2023/09/28 08:34:26;;;;;;;12.65;8.27;;;29.80;99.90;;;;;;10429810;28;20240;-80
2023/09/28 08:39:54;;;;;;;13.15;8.35;;;30.00;99.90;;;;;;10431744;28;20375;-78
2023/09/28 08:45:16;;;;;;;12.45;7.45;;;30.70;99.90;;;;;;10475167;28;20502;-76
2023/09/28 08:50:39;;;;;;;15.65;9.32;;;;;;;;;;10401292;28;20238;-76
2023/09/28 08:56:03;;;;;;;12.52;7.82;;;31.90;1.00;;;;;;10414376;28;20196;-77
2023/09/28 09:01:28;;;;;;;10.75;7.80;;;31.30;99.90;;;;;;10413810;28;20216;-76
2023/09/28 09:06:49;;;;;;;10.45;7.75;;;31.50;99.90;;;;;;10448872;28;20275;-76
2023/09/28 09:12:10;;;;;;;14.98;7.47;;;31.40;99.90;;;;;;10429854;28;20232;-76
2023/09/28 09:18:09;;;;;;;13.45;8.15;;;31.70;99.90;;;;;;10410126;28;20197;-77
2023/09/28 09:23:31;;;;;;;12.77;8.00;;;31.50;99.90;;;;;;10415588;28;20280;-76
2023/09/28 09:28:58;;;;;;;11.55;7.78;;;32.00;99.90;;;;;;10409959;28;20228;-78
2023/09/28 09:34:21;;;;;;;10.27;7.15;;;;;;;;;;10411232;28;20565;-78
2023/09/28 09:39:42;;;;;;;11.95;7.30;;;;;;;;;;10433202;28;20279;-77
2023/09/28 09:45:05;;;;;;;11.38;6.88;;;;;;;;;;10400489;28;20199;-76
2023/09/28 09:50:29;;;;;;;7.63;6.80;;;;;;;;;;10464241;28;20643;-78
2023/09/28 09:55:55;;;;;;;10.15;7.70;;;33.10;99.90;;;;;;10427719;28;20515;-76
2023/09/28 10:01:20;;;;;;;24.20;8.20;;;33.30;99.90;;;;;;10412636;28;20287;-83
2023/09/28 10:06:44;;;;;;;9.77;6.38;;;33.10;99.90;;;;;;10426198;28;20232;-78
2023/09/28 10:12:06;;;;;;;13.25;7.75;;;33.30;99.90;;;;;;10431188;28;20259;-78
2023/09/28 10:17:31;;;;;;;15.25;7.20;;;33.70;99.90;;;;;;10427745;28;20279;-77
2023/09/28 10:22:54;;;;;;;10.85;7.05;;;33.90;99.90;;;;;;10431763;28;20200;-79
2023/09/28 10:28:16;;;;;;;9.85;6.03;;;33.50;99.90;;;;;;10444249;28;20224;-81
2023/09/28 10:34:01;;;;;;;9.38;5.72;;;33.90;99.90;;;;;;10398140;28;20507;-80
2023/09/28 10:39:22;;;;;;;10.50;5.65;;;34.80;99.90;;;;;;10443499;28;20250;-77
2023/09/28 10:44:47;;;;;;;9.63;5.88;;;34.70;99.90;;;;;;10432946;28;20207;-78
2023/09/28 10:50:10;;;;;;;11.98;6.53;;;34.70;99.20;;;;;;10451761;28;20306;-80
2023/09/28 10:55:31;;;;;;;10.55;6.38;;;35.00;98.20;;;;;;10433573;28;20211;-75
2023/09/28 11:00:56;;;;;;;7.97;5.68;;;35.00;96.80;;;;;;10424327;28;20236;-76
2023/09/28 11:06:18;;;;;;;8.52;5.05;;;35.30;95.60;;;;;;10410443;28;20451;-79
2023/09/28 11:11:40;;;;;;;10.77;5.65;;;35.40;94.30;;;;;;10434271;28;20665;-77
2023/09/28 11:17:01;;;;;;;12.50;6.22;;;35.30;93.10;;;;;;10469720;28;20206;-78
2023/09/28 11:22:22;;;;;;;14.07;5.57;;;34.80;91.60;;;;;;10458922;28;20617;-76
2023/09/28 11:27:44;;;;;;;8.35;5.75;;;33.70;89.50;;;;;;10436877;28;20210;-77
2023/09/28 11:33:07;;;;;;;12.45;6.50;;;34.20;90.80;;;;;;10431137;28;20257;-78
2023/09/28 11:38:28;;;;;;;8.32;5.07;;;35.00;90.60;;;;;;10440714;28;20449;-83
2023/09/28 11:43:53;;;;;;;11.02;6.40;;;34.90;87.90;;;;;;10421390;28;20207;-78
2023/09/28 11:49:16;;;;;;;12.80;7.40;;;34.20;88.60;;;;;;10467352;28;20240;-76
2023/09/28 11:54:37;;;;;;;16.00;8.20;;;33.50;88.50;;;;;;10456847;28;20195;-80
2023/09/28 11:59:58;;;;;;;17.50;8.48;;;33.80;88.80;;;;;;10445637;28;20209;-79
2023/09/28 12:05:20;;;;;;;9.43;7.00;;;34.50;87.10;;;;;;10405164;28;20303;-77
2023/09/28 12:10:41;;;;;;;11.30;7.63;;;35.00;88.00;;;;;;10434510;28;20238;-79
2023/09/28 12:16:02;;;;;;;15.30;5.68;;;35.20;87.00;;;;;;10435072;28;20222;-79
2023/09/28 12:21:24;;;;;;;7.90;5.38;;;35.10;98.70;;;;;;10449062;28;20400;-77
2023/09/28 12:26:45;;;;;;;15.02;5.10;;;34.10;81.40;;;;;;10433033;28;20212;-77
2023/09/28 12:32:06;;;;;;;16.55;9.82;;;34.20;79.30;;;;;;10430238;28;20233;-75
2023/09/28 12:37:32;;;;;;;10.23;6.13;;;33.90;78.70;;;;;;10436787;28;20361;-79
2023/09/28 12:42:53;;;;;;;11.20;5.30;;;33.60;78.20;;;;;;10434612;28;20199;-80
2023/09/28 12:48:19;;;;;;;8.48;5.47;;;33.20;76.00;;;;;;10450285;28;20378;-76
2023/09/28 12:53:41;;;;;;;8.07;4.65;;;32.90;76.90;;;;;;10420014;28;20204;-78
2023/09/28 12:59:03;;;;;;;10.95;5.15;;;32.90;77.60;;;;;;10428999;28;20236;-78
2023/09/28 13:04:25;;;;;;;6.25;3.83;;;33.10;77.00;;;;;;10397646;28;20201;-77
2023/09/28 13:09:46;;;;;;;9.25;4.30;;;33.10;76.90;;;;;;10428937;28;20282;-76
2023/09/28 13:15:09;;;;;;;10.10;5.07;;;32.60;73.80;;;;;;10433032;28;20259;-75
2023/09/28 13:20:31;;;;;;;7.70;4.70;;;32.80;75.00;;;;;;10402394;28;20212;-75
2023/09/28 13:25:52;;;;;;;7.88;5.25;;;32.70;75.10;;;;;;10412518;28;20279;-75
2023/09/28 13:31:13;;;;;;;10.48;6.80;;;32.10;71.30;;;;;;10419783;28;20277;-75
2023/09/28 13:36:35;;;;;;;12.68;5.75;;;;;;;;;;10471395;28;20406;-77
2023/09/28 13:41:59;;;;;;;8.52;4.93;;;30.40;49.50;;;;;;10429427;28;20200;-77
2023/09/28 13:47:20;;;;;;;13.35;5.95;;;30.00;70.10;;;;;;10425441;28;20216;-75
2023/09/28 13:52:41;;;;;;;12.65;5.60;;;30.00;67.90;;;;;;10434360;28;20212;-78
2023/09/28 13:58:03;;;;;;;13.68;5.22;;;30.20;67.80;;;;;;10430978;28;20219;-75
2023/09/28 14:03:25;;;;;;;11.10;5.43;;;29.80;66.00;;;;;;10433531;28;20193;-75
2023/09/28 14:08:46;;;;;;;7.75;5.32;;;29.20;67.40;;;;;;10413198;28;20244;-76
2023/09/28 14:14:09;;;;;;;14.25;7.22;;;28.60;68.00;;;;;;10429622;28;20314;-76
2023/09/28 14:19:30;;;;;;;10.82;6.10;;;28.10;67.00;;;;;;10431750;28;20197;-75
2023/09/28 14:24:51;;;;;;;10.05;5.75;;;27.90;67.10;;;;;;10430647;28;20430;-78
2023/09/28 14:30:13;;;;;;;7.32;5.20;;;27.70;68.00;;;;;;10429852;28;20224;-77
2023/09/28 14:35:36;;;;;;;10.88;6.45;;;27.40;67.80;;;;;;10396386;28;20203;-76
2023/09/28 14:40:58;;;;;;;16.13;6.85;;;27.20;68.80;;;;;;10427642;28;20224;-77
2023/09/28 14:46:19;;;;;;;13.65;6.65;;;27.10;70.10;;;;;;10415478;28;20204;-76
2023/09/28 14:51:40;;;;;;;10.52;6.00;;;27.20;70.30;;;;;;10440694;28;20243;-77
2023/09/28 14:57:02;;;;;;;11.23;5.40;;;27.50;70.40;;;;;;10434617;28;20287;-78
2023/09/28 15:02:24;;;;;;;12.10;6.10;;;27.50;70.20;;;;;;10465219;28;20289;-81
2023/09/28 15:07:45;;;;;;;8.48;5.97;;;27.10;71.60;;;;;;10448381;28;20251;-86
2023/09/28 15:13:07;;;;;;;9.45;6.50;;;;;;;;;;10430888;28;20638;-77
2023/09/28 15:18:28;;;;;;;10.27;6.57;;;26.40;52.60;;;;;;10434743;28;20195;-76
2023/09/28 15:23:50;;;;;;;9.90;6.65;;;;;;;;;;10416961;28;20204;-77
2023/09/28 15:29:11;;;;;;;10.68;5.97;;;26.10;1.00;;;;;;10433748;28;20238;-77
2023/09/28 15:34:32;;;;;;;11.75;5.60;;;25.80;74.30;;;;;;10432871;28;20204;-76
2023/09/28 15:39:54;;;;;;;7.20;5.28;;;25.70;99.90;;;;;;10417624;28;20227;-78
2023/09/28 15:45:15;;;;;;;9.18;5.72;;;25.60;74.90;;;;;;10418581;28;20223;-77
2023/09/28 15:50:36;;;;;;;8.18;6.20;;;25.40;74.90;;;;;;10437003;28;20303;-76
2023/09/28 15:55:57;;;;;;;10.07;8.15;;;25.30;78.20;;;;;;10434291;28;20200;-76
2023/09/28 16:01:18;;;;;;;12.35;8.45;;;25.20;76.70;;;;;;10451484;28;20275;-78
2023/09/28 16:06:40;;;;;;;12.60;9.02;;;;;;;;;;10442016;28;20243;-77
2023/09/28 16:12:02;;;;;;;14.90;10.65;;;;;;;;;;10447550;28;20376;-77
2023/09/28 16:17:22;;;;;;;23.20;11.95;;;24.50;99.90;;;;;;10380921;28;20204;-76
2023/09/28 16:22:44;;;;;;;15.55;10.98;;;;;;;;;;10401562;28;20193;-76
2023/09/28 16:28:06;;;;;;;22.10;11.55;;;23.90;66.20;;;;;;10440388;28;20599;-76
2023/09/28 16:33:27;;;;;;;23.33;12.68;;;23.60;90.90;;;;;;10446919;28;20233;-77
2023/09/28 16:38:49;;;;;;;23.13;14.00;;;23.40;91.50;;;;;;10457516;28;20499;-76
2023/09/28 16:44:10;;;;;;;23.40;13.82;;;23.20;99.90;;;;;;10466138;28;20627;-78
2023/09/28 16:49:31;;;;;;;30.00;16.67;;;22.90;93.80;;;;;;10502636;28;20243;-78
2023/09/28 16:54:53;;;;;;;36.47;20.15;;;22.60;95.50;;;;;;10478757;28;20230;-76
2023/09/28 17:00:14;;;;;;;39.78;23.08;;;22.30;83.80;;;;;;10506216;28;20203;-78
2023/09/28 17:05:36;;;;;;;41.83;20.95;;;;;;;;;;10450696;28;20240;-78
2023/09/28 17:10:57;;;;;;;47.38;24.10;;;22.00;87.10;;;;;;10447002;28;20220;-80
2023/09/28 17:16:20;;;;;;;34.58;20.98;;;21.90;99.90;;;;;;10435251;28;20522;-77
2023/09/28 17:21:41;;;;;;;31.50;19.90;;;22.00;99.90;;;;;;10420283;28;20204;-76
2023/09/28 17:27:03;;;;;;;33.60;19.92;;;21.60;99.90;;;;;;10478132;28;20221;-80
2023/09/28 17:32:24;;;;;;;32.65;19.30;;;21.40;99.90;;;;;;10499561;28;20282;-77
2023/09/28 17:37:45;;;;;;;29.83;19.58;;;21.30;99.90;;;;;;10480561;28;20221;-80
2023/09/28 17:43:07;;;;;;;47.65;26.98;;;21.10;99.90;;;;;;10461092;28;20254;-78
2023/09/28 17:48:28;;;;;;;31.27;19.90;;;21.00;99.90;;;;;;10473844;28;20846;-78
2023/09/28 17:53:49;;;;;;;33.13;21.77;;;20.90;99.90;;;;;;10481629;28;20261;-78
2023/09/28 17:59:12;;;;;;;30.65;21.42;;;20.90;33.90;;;;;;10449283;28;20196;-78
2023/09/28 18:04:33;;;;;;;37.20;22.63;;;20.70;99.90;;;;;;10468225;28;20203;-76
2023/09/28 18:09:55;;;;;;;34.65;23.42;;;20.50;99.90;;;;;;10506170;28;20250;-76
2023/09/28 18:15:19;;;;;;;28.25;21.33;;;20.50;1.00;;;;;;10480761;28;20199;-76
2023/09/28 18:20:41;;;;;;;37.10;24.23;;;;;;;;;;10478173;28;20211;-78
2023/09/28 18:26:02;;;;;;;42.88;25.35;;;20.30;99.90;;;;;;10470793;28;20517;-77
2023/09/28 18:31:24;;;;;;;40.35;26.25;;;20.20;1.00;;;;;;10466769;28;20223;-78
2023/09/28 18:36:45;;;;;;;41.65;25.83;;;20.00;1.00;;;;;;10498466;28;20230;-78
2023/09/28 18:42:06;;;;;;;43.08;29.23;;;19.80;1.00;;;;;;10477048;28;20207;-77
2023/09/28 18:47:28;;;;;;;40.55;26.67;;;19.80;1.00;;;;;;10523140;28;20244;-77
2023/09/28 18:52:49;;;;;;;36.40;25.02;;;19.60;1.00;;;;;;10475181;28;20273;-77
2023/09/28 18:58:11;;;;;;;44.00;27.25;;;19.50;1.00;;;;;;10472934;28;20238;-77
2023/09/28 19:03:32;;;;;;;42.53;27.05;;;19.40;1.00;;;;;;10470201;28;20536;-77
2023/09/28 19:08:54;;;;;;;38.70;25.60;;;19.40;1.00;;;;;;10496037;28;20232;-77
2023/09/28 19:14:15;;;;;;;32.05;21.40;;;19.40;99.90;;;;;;10478972;28;20203;-77
2023/09/28 19:19:38;;;;;;;28.98;19.15;;;;;;;;;;10490911;28;20486;-77
2023/09/28 19:24:59;;;;;;;31.25;20.80;;;19.00;56.30;;;;;;10508480;28;20490;-78
2023/09/28 19:30:21;;;;;;;34.78;23.23;;;19.00;99.90;;;;;;10471110;28;20257;-77
2023/09/28 19:35:43;;;;;;;41.17;23.05;;;18.90;99.90;;;;;;10496436;28;20213;-77
2023/09/28 19:41:04;;;;;;;38.03;22.98;;;18.90;99.90;;;;;;10457095;28;20205;-77
2023/09/28 19:46:26;;;;;;;41.63;23.15;;;;;;;;;;10464434;28;20199;-77
2023/09/28 19:51:48;;;;;;;42.00;25.10;;;;;;;;;;10471766;28;20266;-77
2023/09/28 19:57:09;;;;;;;48.25;28.15;;;18.50;99.90;;;;;;10472843;28;20389;-76
2023/09/28 20:02:30;;;;;;;39.78;25.65;;;18.50;41.90;;;;;;10477141;28;20222;-76
2023/09/28 20:07:56;;;;;;;41.85;24.55;;;18.40;99.90;;;;;;10471255;28;20255;-76
2023/09/28 20:13:18;;;;;;;57.03;33.33;;;18.30;99.90;;;;;;10478970;28;20227;-75
2023/09/28 20:18:39;;;;;;;62.28;35.22;;;18.20;99.90;;;;;;10471913;28;20199;-77
2023/09/28 20:24:00;;;;;;;66.20;35.47;;;18.10;99.90;;;;;;10512904;28;20195;-77
2023/09/28 20:29:21;;;;;;;66.00;37.78;;;18.00;99.90;;;;;;10475721;28;20202;-76
2023/09/28 20:34:43;;;;;;;57.53;35.03;;;;;;;;;;10526482;28;20197;-76
2023/09/28 20:40:07;;;;;;;50.20;32.88;;;17.90;99.90;;;;;;10439908;28;20250;-75
2023/09/28 20:45:30;;;;;;;46.03;29.33;;;17.70;99.90;;;;;;10473406;28;20199;-75
2023/09/28 20:50:51;;;;;;;49.88;27.92;;;17.70;1.00;;;;;;10494697;28;20227;-77
2023/09/28 20:56:15;;;;;;;38.78;24.10;;;17.60;1.00;;;;;;10484147;28;20188;-77
2023/09/28 21:01:37;;;;;;;40.58;21.13;;;17.50;99.90;;;;;;10470566;28;20204;-77
2023/09/28 21:06:58;;;;;;;33.97;20.75;;;17.40;99.90;;;;;;10483498;28;20234;-77
2023/09/28 21:12:19;;;;;;;38.85;21.33;;;17.20;99.90;;;;;;10508884;28;20229;-78
2023/09/28 21:17:40;;;;;;;37.10;21.33;;;17.20;99.90;;;;;;10479856;28;20267;-78
2023/09/28 21:23:01;;;;;;;34.25;22.13;;;17.20;1.00;;;;;;10522536;28;20195;-77
2023/09/28 21:28:22;;;;;;;37.72;24.90;;;17.10;1.00;;;;;;10481043;28;20249;-76
2023/09/28 21:33:44;;;;;;;44.28;27.02;;;;;;;;;;10506103;28;20548;-77
2023/09/28 21:39:05;;;;;;;47.33;27.60;;;17.10;1.00;;;;;;10500470;28;20204;-78
2023/09/28 21:44:26;;;;;;;43.88;25.73;;;17.10;1.00;;;;;;10481931;28;20196;-76
2023/09/28 21:49:47;;;;;;;40.33;23.70;;;17.10;1.00;;;;;;10468302;28;20242;-76
2023/09/28 21:55:09;;;;;;;36.72;21.33;;;17.00;1.00;;;;;;10502127;28;20282;-75
2023/09/28 22:05:54;;;;;;;34.83;21.40;;;16.70;1.00;;;;;;10504800;28;20242;-78
2023/09/28 22:11:15;;;;;;;38.20;22.48;;;16.70;1.00;;;;;;10445086;28;20224;-77
2023/09/28 22:16:37;;;;;;;34.63;21.15;;;;;;;;;;10499661;28;20531;-74
2023/09/28 22:21:58;;;;;;;33.65;20.05;;;16.50;1.00;;;;;;10448304;28;20200;-79
2023/09/28 22:27:19;;;;;;;32.70;20.40;;;16.50;1.00;;;;;;10438940;28;20344;-75
2023/09/28 22:32:41;;;;;;;32.13;18.95;;;16.60;1.00;;;;;;10466014;28;20544;-76
2023/09/28 22:38:03;;;;;;;32.03;18.65;;;16.50;1.00;;;;;;10461452;28;20224;-77
2023/09/28 22:43:24;;;;;;;28.67;18.60;;;16.40;1.00;;;;;;10472090;28;20226;-76
2023/09/28 22:48:45;;;;;;;32.28;18.00;;;16.30;1.00;;;;;;10472540;28;20532;-73
2023/09/28 22:54:07;;;;;;;32.10;18.75;;;16.30;1.00;;;;;;10478002;28;20233;-75
2023/09/28 22:59:29;;;;;;;34.15;19.10;;;16.20;1.00;;;;;;10432294;28;20208;-77
2023/09/28 23:04:52;;;;;;;30.25;18.35;;;16.20;1.00;;;;;;10437928;28;20291;-77
2023/09/28 23:10:14;;;;;;;32.28;18.13;;;16.20;1.00;;;;;;10440679;28;20273;-77
2023/09/28 23:15:35;;;;;;;26.85;17.52;;;16.10;1.00;;;;;;10437413;28;20197;-77
2023/09/28 23:20:57;;;;;;;29.17;17.65;;;16.10;1.00;;;;;;10436849;28;20199;-77
2023/09/28 23:26:18;;;;;;;26.20;17.15;;;16.10;1.00;;;;;;10437167;28;20424;-77
2023/09/28 23:31:39;;;;;;;29.70;18.02;;;16.00;1.00;;;;;;10455714;28;20218;-78
2023/09/28 23:37:01;;;;;;;33.47;19.40;;;15.90;1.00;;;;;;10463103;28;20187;-77
2023/09/28 23:42:23;;;;;;;27.10;18.20;;;;;;;;;;10452400;28;20277;-77
2023/09/28 23:47:44;;;;;;;29.42;18.20;;;;;;;;;;10476676;28;20200;-77
2023/09/28 23:53:09;;;;;;;28.75;18.90;;;;;;;;;;10468490;28;20241;-74
2023/09/28 23:58:30;;;;;;;29.42;18.95;;;;;;;;;;10457829;28;20242;-77
